West Vail, Colorado
Current Conditions -  °F | °C
As of 6:24 AM on Wednesday 26 Nov 2014 (Local Time) from KCCU Reporting Station
Overcast Overcast  
Wind Chill:   Ceiling: 300
Heat Index: 27°   Visibility: NA
Dew Point: 19°   Wind: 38mph
Humidity: 74%   Direction: 270°W
Pressure: 30.25"   Gusts: 55mph
Location:  39.5908°N, 106.4°W
Report Text: KCCU 261324Z AUTO 27033G48KT BKN003 OVC008 M03/M07 A3025 RMK AO2 PWINO
Loading
Personal Weather Stations






























Interactive Weather Map New forecast layout! Learn more

10-Day Weather Forecast

Advertisements
Track Severe Weather on mobile